sensor_id;sensor_type;location;lat;lon;timestamp;temperature;humidity
10051;DHT22;5065;46.942;7.432;2022-08-07T00:01:03;20.10;99.90
10051;DHT22;5065;46.942;7.432;2022-08-07T00:03:32;20.00;99.90
10051;DHT22;5065;46.942;7.432;2022-08-07T00:06:00;20.10;99.90
10051;DHT22;5065;46.942;7.432;2022-08-07T00:08:27;20.00;99.90
10051;DHT22;5065;46.942;7.432;2022-08-07T00:10:54;20.00;99.90
10051;DHT22;5065;46.942;7.432;2022-08-07T00:13:22;20.00;99.90
10051;DHT22;5065;46.942;7.432;2022-08-07T00:15:50;20.00;99.90
10051;DHT22;5065;46.942;7.432;2022-08-07T00:18:20;20.00;99.90
10051;DHT22;5065;46.942;7.432;2022-08-07T00:20:49;20.00;99.90
10051;DHT22;5065;46.942;7.432;2022-08-07T00:23:16;20.00;99.90
10051;DHT22;5065;46.942;7.432;2022-08-07T00:25:43;20.00;99.90
10051;DHT22;5065;46.942;7.432;2022-08-07T00:28:10;20.00;99.90
10051;DHT22;5065;46.942;7.432;2022-08-07T00:30:38;20.00;99.90
10051;DHT22;5065;46.942;7.432;2022-08-07T00:33:05;20.00;99.90
10051;DHT22;5065;46.942;7.432;2022-08-07T00:35:32;20.00;99.90
10051;DHT22;5065;46.942;7.432;2022-08-07T00:38:01;19.90;99.90
10051;DHT22;5065;46.942;7.432;2022-08-07T00:40:29;19.90;99.90
10051;DHT22;5065;46.942;7.432;2022-08-07T00:42:57;19.90;99.90
10051;DHT22;5065;46.942;7.432;2022-08-07T00:45:24;19.80;99.90
10051;DHT22;5065;46.942;7.432;2022-08-07T00:47:51;19.80;99.90
10051;DHT22;5065;46.942;7.432;2022-08-07T00:50:20;19.80;99.90
10051;DHT22;5065;46.942;7.432;2022-08-07T00:52:48;19.80;99.90
10051;DHT22;5065;46.942;7.432;2022-08-07T00:55:18;19.80;99.90
10051;DHT22;5065;46.942;7.432;2022-08-07T00:57:45;19.80;99.90
10051;DHT22;5065;46.942;7.432;2022-08-07T01:00:13;19.80;99.90
10051;DHT22;5065;46.942;7.432;2022-08-07T01:02:41;19.80;99.90
10051;DHT22;5065;46.942;7.432;2022-08-07T01:05:10;19.80;99.90
10051;DHT22;5065;46.942;7.432;2022-08-07T01:07:37;19.80;99.90
10051;DHT22;5065;46.942;7.432;2022-08-07T01:10:08;19.80;99.90
10051;DHT22;5065;46.942;7.432;2022-08-07T01:12:39;19.80;99.90
10051;DHT22;5065;46.942;7.432;2022-08-07T01:15:07;19.80;99.90
10051;DHT22;5065;46.942;7.432;2022-08-07T01:17:35;19.80;99.90
10051;DHT22;5065;46.942;7.432;2022-08-07T01:20:05;19.80;99.90
10051;DHT22;5065;46.942;7.432;2022-08-07T01:22:35;19.90;99.90
10051;DHT22;5065;46.942;7.432;2022-08-07T01:25:03;19.90;99.90
10051;DHT22;5065;46.942;7.432;2022-08-07T01:27:31;19.90;99.90
10051;DHT22;5065;46.942;7.432;2022-08-07T01:29:58;19.90;99.90
10051;DHT22;5065;46.942;7.432;2022-08-07T01:32:26;19.90;99.90
10051;DHT22;5065;46.942;7.432;2022-08-07T01:34:53;19.90;99.90
10051;DHT22;5065;46.942;7.432;2022-08-07T01:37:21;19.90;99.90
10051;DHT22;5065;46.942;7.432;2022-08-07T01:39:50;19.90;99.90
10051;DHT22;5065;46.942;7.432;2022-08-07T01:42:17;19.90;99.90
10051;DHT22;5065;46.942;7.432;2022-08-07T01:44:46;19.90;99.90
10051;DHT22;5065;46.942;7.432;2022-08-07T01:47:13;19.90;99.90
10051;DHT22;5065;46.942;7.432;2022-08-07T01:49:40;19.90;99.90
10051;DHT22;5065;46.942;7.432;2022-08-07T01:52:08;19.90;99.90
10051;DHT22;5065;46.942;7.432;2022-08-07T01:54:41;20.00;99.90
10051;DHT22;5065;46.942;7.432;2022-08-07T01:57:14;19.90;99.90
10051;DHT22;5065;46.942;7.432;2022-08-07T01:59:49;19.90;99.90
10051;DHT22;5065;46.942;7.432;2022-08-07T02:02:22;19.90;99.90
10051;DHT22;5065;46.942;7.432;2022-08-07T02:04:57;19.90;99.90
10051;DHT22;5065;46.942;7.432;2022-08-07T02:07:31;19.80;99.90
10051;DHT22;5065;46.942;7.432;2022-08-07T02:10:00;19.80;99.90
10051;DHT22;5065;46.942;7.432;2022-08-07T02:12:32;19.80;99.90
10051;DHT22;5065;46.942;7.432;2022-08-07T02:15:00;19.80;99.90
10051;DHT22;5065;46.942;7.432;2022-08-07T02:17:28;19.80;99.90
10051;DHT22;5065;46.942;7.432;2022-08-07T02:19:58;19.90;99.90
10051;DHT22;5065;46.942;7.432;2022-08-07T02:22:30;19.90;99.90
10051;DHT22;5065;46.942;7.432;2022-08-07T02:24:58;19.90;99.90
10051;DHT22;5065;46.942;7.432;2022-08-07T02:27:29;19.90;99.90
10051;DHT22;5065;46.942;7.432;2022-08-07T02:29:58;19.90;99.90
10051;DHT22;5065;46.942;7.432;2022-08-07T02:32:27;19.80;99.90
10051;DHT22;5065;46.942;7.432;2022-08-07T02:34:56;19.80;99.90
10051;DHT22;5065;46.942;7.432;2022-08-07T02:37:24;19.80;99.90
10051;DHT22;5065;46.942;7.432;2022-08-07T02:39:53;19.80;99.90
10051;DHT22;5065;46.942;7.432;2022-08-07T02:42:21;19.80;99.90
10051;DHT22;5065;46.942;7.432;2022-08-07T02:44:51;19.80;99.90
10051;DHT22;5065;46.942;7.432;2022-08-07T02:47:21;19.80;99.90
10051;DHT22;5065;46.942;7.432;2022-08-07T02:49:48;19.80;99.90
10051;DHT22;5065;46.942;7.432;2022-08-07T02:52:20;19.80;99.90
10051;DHT22;5065;46.942;7.432;2022-08-07T02:54:50;19.80;99.90
10051;DHT22;5065;46.942;7.432;2022-08-07T02:57:18;19.80;99.90
10051;DHT22;5065;46.942;7.432;2022-08-07T02:59:50;19.80;99.90
10051;DHT22;5065;46.942;7.432;2022-08-07T03:02:18;19.80;99.90
10051;DHT22;5065;46.942;7.432;2022-08-07T03:04:47;19.90;99.90
10051;DHT22;5065;46.942;7.432;2022-08-07T03:07:15;19.80;99.90
10051;DHT22;5065;46.942;7.432;2022-08-07T03:09:44;19.90;99.90
10051;DHT22;5065;46.942;7.432;2022-08-07T03:12:11;19.80;99.90
10051;DHT22;5065;46.942;7.432;2022-08-07T03:14:40;19.80;99.90
10051;DHT22;5065;46.942;7.432;2022-08-07T03:17:08;19.70;99.90
10051;DHT22;5065;46.942;7.432;2022-08-07T03:19:36;19.60;99.90
10051;DHT22;5065;46.942;7.432;2022-08-07T03:22:05;19.60;99.90
10051;DHT22;5065;46.942;7.432;2022-08-07T03:24:33;19.50;99.90
10051;DHT22;5065;46.942;7.432;2022-08-07T03:27:02;19.50;99.90
10051;DHT22;5065;46.942;7.432;2022-08-07T03:29:36;19.60;99.90
10051;DHT22;5065;46.942;7.432;2022-08-07T03:32:06;19.60;99.90
10051;DHT22;5065;46.942;7.432;2022-08-07T03:34:36;19.60;99.90
10051;DHT22;5065;46.942;7.432;2022-08-07T03:37:05;19.60;99.90
10051;DHT22;5065;46.942;7.432;2022-08-07T03:39:35;19.60;99.90
10051;DHT22;5065;46.942;7.432;2022-08-07T03:42:04;19.60;99.90
10051;DHT22;5065;46.942;7.432;2022-08-07T03:44:32;19.60;99.90
10051;DHT22;5065;46.942;7.432;2022-08-07T03:47:00;19.60;99.90
10051;DHT22;5065;46.942;7.432;2022-08-07T03:49:28;19.60;99.90
10051;DHT22;5065;46.942;7.432;2022-08-07T03:51:57;19.60;99.90
10051;DHT22;5065;46.942;7.432;2022-08-07T03:54:27;19.60;99.90
10051;DHT22;5065;46.942;7.432;2022-08-07T03:56:56;19.60;99.90
10051;DHT22;5065;46.942;7.432;2022-08-07T03:59:25;19.70;99.90
10051;DHT22;5065;46.942;7.432;2022-08-07T04:01:54;19.70;99.90
10051;DHT22;5065;46.942;7.432;2022-08-07T04:04:22;19.70;99.90
10051;DHT22;5065;46.942;7.432;2022-08-07T04:06:51;19.80;99.90
10051;DHT22;5065;46.942;7.432;2022-08-07T04:09:20;19.80;99.90
10051;DHT22;5065;46.942;7.432;2022-08-07T04:11:49;19.80;99.90
10051;DHT22;5065;46.942;7.432;2022-08-07T04:14:17;19.90;99.90
10051;DHT22;5065;46.942;7.432;2022-08-07T04:16:45;19.90;99.90
10051;DHT22;5065;46.942;7.432;2022-08-07T04:19:14;19.90;99.90
10051;DHT22;5065;46.942;7.432;2022-08-07T04:21:41;19.90;99.90
10051;DHT22;5065;46.942;7.432;2022-08-07T04:24:09;19.90;99.90
10051;DHT22;5065;46.942;7.432;2022-08-07T04:26:39;19.90;99.90
10051;DHT22;5065;46.942;7.432;2022-08-07T04:29:06;19.90;99.90
10051;DHT22;5065;46.942;7.432;2022-08-07T04:31:36;19.90;99.90
10051;DHT22;5065;46.942;7.432;2022-08-07T04:34:04;19.90;99.90
10051;DHT22;5065;46.942;7.432;2022-08-07T04:36:35;19.90;99.90
10051;DHT22;5065;46.942;7.432;2022-08-07T04:39:04;19.90;99.90
10051;DHT22;5065;46.942;7.432;2022-08-07T04:41:31;19.80;99.90
10051;DHT22;5065;46.942;7.432;2022-08-07T04:44:00;19.70;99.90
10051;DHT22;5065;46.942;7.432;2022-08-07T04:46:32;19.70;99.90
10051;DHT22;5065;46.942;7.432;2022-08-07T04:49:08;19.70;99.90
10051;DHT22;5065;46.942;7.432;2022-08-07T04:51:43;19.70;99.90
10051;DHT22;5065;46.942;7.432;2022-08-07T04:54:19;19.70;99.90
10051;DHT22;5065;46.942;7.432;2022-08-07T04:56:51;19.80;99.90
10051;DHT22;5065;46.942;7.432;2022-08-07T04:59:29;19.80;99.90
10051;DHT22;5065;46.942;7.432;2022-08-07T05:02:02;19.80;99.90
10051;DHT22;5065;46.942;7.432;2022-08-07T05:04:34;19.80;99.90
10051;DHT22;5065;46.942;7.432;2022-08-07T05:07:11;19.80;99.90
10051;DHT22;5065;46.942;7.432;2022-08-07T05:09:43;19.80;99.90
10051;DHT22;5065;46.942;7.432;2022-08-07T05:12:21;19.80;99.90
10051;DHT22;5065;46.942;7.432;2022-08-07T05:14:51;19.80;99.90
10051;DHT22;5065;46.942;7.432;2022-08-07T05:17:21;19.70;99.90
10051;DHT22;5065;46.942;7.432;2022-08-07T05:19:50;19.70;99.90
10051;DHT22;5065;46.942;7.432;2022-08-07T05:22:19;19.70;99.90
10051;DHT22;5065;46.942;7.432;2022-08-07T05:24:49;19.70;99.90
10051;DHT22;5065;46.942;7.432;2022-08-07T05:27:18;19.70;99.90
10051;DHT22;5065;46.942;7.432;2022-08-07T05:29:46;19.70;99.90
10051;DHT22;5065;46.942;7.432;2022-08-07T05:32:20;19.80;99.90
10051;DHT22;5065;46.942;7.432;2022-08-07T05:34:50;19.80;99.90
10051;DHT22;5065;46.942;7.432;2022-08-07T05:37:18;19.80;99.90
10051;DHT22;5065;46.942;7.432;2022-08-07T05:39:46;19.70;99.90
10051;DHT22;5065;46.942;7.432;2022-08-07T05:42:14;19.70;99.90
10051;DHT22;5065;46.942;7.432;2022-08-07T05:44:42;19.70;99.90
10051;DHT22;5065;46.942;7.432;2022-08-07T05:47:10;19.70;99.90
10051;DHT22;5065;46.942;7.432;2022-08-07T05:49:39;19.80;99.90
10051;DHT22;5065;46.942;7.432;2022-08-07T05:52:07;19.70;99.90
10051;DHT22;5065;46.942;7.432;2022-08-07T05:54:35;19.70;99.90
10051;DHT22;5065;46.942;7.432;2022-08-07T05:57:03;19.70;99.90
10051;DHT22;5065;46.942;7.432;2022-08-07T05:59:36;19.80;99.90
10051;DHT22;5065;46.942;7.432;2022-08-07T06:02:05;19.80;99.90
10051;DHT22;5065;46.942;7.432;2022-08-07T06:04:34;19.70;99.90
10051;DHT22;5065;46.942;7.432;2022-08-07T06:07:05;19.70;99.90
10051;DHT22;5065;46.942;7.432;2022-08-07T06:09:33;19.80;99.90
10051;DHT22;5065;46.942;7.432;2022-08-07T06:12:00;19.90;99.90
10051;DHT22;5065;46.942;7.432;2022-08-07T06:14:28;19.90;99.90
10051;DHT22;5065;46.942;7.432;2022-08-07T06:16:55;19.90;99.90
10051;DHT22;5065;46.942;7.432;2022-08-07T06:19:28;20.00;99.90
10051;DHT22;5065;46.942;7.432;2022-08-07T06:21:56;20.00;99.90
10051;DHT22;5065;46.942;7.432;2022-08-07T06:24:26;20.00;99.90
10051;DHT22;5065;46.942;7.432;2022-08-07T06:26:53;20.00;99.90
10051;DHT22;5065;46.942;7.432;2022-08-07T06:29:25;20.10;99.90
10051;DHT22;5065;46.942;7.432;2022-08-07T06:31:53;20.10;99.90
10051;DHT22;5065;46.942;7.432;2022-08-07T06:34:23;20.10;99.90
10051;DHT22;5065;46.942;7.432;2022-08-07T06:36:51;20.10;99.90
10051;DHT22;5065;46.942;7.432;2022-08-07T06:39:19;20.10;99.90
10051;DHT22;5065;46.942;7.432;2022-08-07T06:41:54;20.10;99.90
10051;DHT22;5065;46.942;7.432;2022-08-07T06:44:23;20.10;99.90
10051;DHT22;5065;46.942;7.432;2022-08-07T06:46:52;20.10;99.90
10051;DHT22;5065;46.942;7.432;2022-08-07T06:49:19;20.20;99.90
10051;DHT22;5065;46.942;7.432;2022-08-07T06:51:47;20.20;99.90
10051;DHT22;5065;46.942;7.432;2022-08-07T06:54:16;20.20;99.90
10051;DHT22;5065;46.942;7.432;2022-08-07T06:56:44;20.20;99.90
10051;DHT22;5065;46.942;7.432;2022-08-07T06:59:19;20.30;99.90
10051;DHT22;5065;46.942;7.432;2022-08-07T07:01:47;20.30;99.90
10051;DHT22;5065;46.942;7.432;2022-08-07T07:04:15;20.30;99.90
10051;DHT22;5065;46.942;7.432;2022-08-07T07:06:44;20.30;99.90
10051;DHT22;5065;46.942;7.432;2022-08-07T07:09:21;20.30;99.90
10051;DHT22;5065;46.942;7.432;2022-08-07T07:11:57;20.30;99.90
10051;DHT22;5065;46.942;7.432;2022-08-07T07:14:30;20.30;99.90
10051;DHT22;5065;46.942;7.432;2022-08-07T07:17:03;20.40;99.90
10051;DHT22;5065;46.942;7.432;2022-08-07T07:19:39;20.40;99.90
10051;DHT22;5065;46.942;7.432;2022-08-07T07:22:09;20.50;99.90
10051;DHT22;5065;46.942;7.432;2022-08-07T07:24:37;20.50;99.90
10051;DHT22;5065;46.942;7.432;2022-08-07T07:27:06;20.50;99.90
10051;DHT22;5065;46.942;7.432;2022-08-07T07:29:39;20.50;99.90
10051;DHT22;5065;46.942;7.432;2022-08-07T07:32:11;20.50;99.90
10051;DHT22;5065;46.942;7.432;2022-08-07T07:34:43;20.50;99.90
10051;DHT22;5065;46.942;7.432;2022-08-07T07:37:11;20.50;99.90
10051;DHT22;5065;46.942;7.432;2022-08-07T07:39:40;20.50;99.90
10051;DHT22;5065;46.942;7.432;2022-08-07T07:42:09;20.50;99.90
10051;DHT22;5065;46.942;7.432;2022-08-07T07:44:40;20.60;99.90
10051;DHT22;5065;46.942;7.432;2022-08-07T07:47:09;20.60;99.90
10051;DHT22;5065;46.942;7.432;2022-08-07T07:49:38;20.60;99.90
10051;DHT22;5065;46.942;7.432;2022-08-07T07:52:07;20.50;99.90
10051;DHT22;5065;46.942;7.432;2022-08-07T07:54:38;20.60;99.90
10051;DHT22;5065;46.942;7.432;2022-08-07T07:57:09;20.60;99.90
10051;DHT22;5065;46.942;7.432;2022-08-07T07:59:40;20.70;99.90
10051;DHT22;5065;46.942;7.432;2022-08-07T08:02:08;20.80;99.90
10051;DHT22;5065;46.942;7.432;2022-08-07T08:04:36;20.80;99.90
10051;DHT22;5065;46.942;7.432;2022-08-07T08:07:04;20.90;99.90
10051;DHT22;5065;46.942;7.432;2022-08-07T08:09:32;20.90;99.90
10051;DHT22;5065;46.942;7.432;2022-08-07T08:12:00;21.10;99.90
10051;DHT22;5065;46.942;7.432;2022-08-07T08:14:29;21.10;99.90
10051;DHT22;5065;46.942;7.432;2022-08-07T08:17:00;21.20;99.90
10051;DHT22;5065;46.942;7.432;2022-08-07T08:19:29;21.30;99.90
10051;DHT22;5065;46.942;7.432;2022-08-07T08:21:58;21.30;99.90
10051;DHT22;5065;46.942;7.432;2022-08-07T08:24:45;21.40;99.90
10051;DHT22;5065;46.942;7.432;2022-08-07T08:27:43;21.50;99.90
10051;DHT22;5065;46.942;7.432;2022-08-07T08:30:13;21.50;99.90
10051;DHT22;5065;46.942;7.432;2022-08-07T08:32:45;21.60;99.90
10051;DHT22;5065;46.942;7.432;2022-08-07T08:35:17;21.60;99.90
10051;DHT22;5065;46.942;7.432;2022-08-07T08:37:46;21.70;99.90
10051;DHT22;5065;46.942;7.432;2022-08-07T08:40:20;21.70;99.90
10051;DHT22;5065;46.942;7.432;2022-08-07T08:42:53;21.80;99.90
10051;DHT22;5065;46.942;7.432;2022-08-07T08:45:25;22.00;99.90
10051;DHT22;5065;46.942;7.432;2022-08-07T08:48:05;22.10;99.90
10051;DHT22;5065;46.942;7.432;2022-08-07T08:50:37;22.30;99.90
10051;DHT22;5065;46.942;7.432;2022-08-07T08:53:13;22.40;99.90
10051;DHT22;5065;46.942;7.432;2022-08-07T08:55:48;22.50;99.90
10051;DHT22;5065;46.942;7.432;2022-08-07T08:58:22;22.60;99.90
10051;DHT22;5065;46.942;7.432;2022-08-07T09:00:59;22.60;99.90
10051;DHT22;5065;46.942;7.432;2022-08-07T09:03:32;22.60;99.90
10051;DHT22;5065;46.942;7.432;2022-08-07T09:06:05;22.70;99.90
10051;DHT22;5065;46.942;7.432;2022-08-07T09:08:40;22.70;99.90
10051;DHT22;5065;46.942;7.432;2022-08-07T09:11:17;22.70;99.90
10051;DHT22;5065;46.942;7.432;2022-08-07T09:14:00;22.70;99.90
10051;DHT22;5065;46.942;7.432;2022-08-07T09:16:43;22.80;99.90
10051;DHT22;5065;46.942;7.432;2022-08-07T09:19:38;22.80;99.90
10051;DHT22;5065;46.942;7.432;2022-08-07T09:22:18;22.80;99.90
10051;DHT22;5065;46.942;7.432;2022-08-07T09:24:58;22.70;99.90
10051;DHT22;5065;46.942;7.432;2022-08-07T09:27:35;22.70;99.90
10051;DHT22;5065;46.942;7.432;2022-08-07T09:30:09;22.70;99.90
10051;DHT22;5065;46.942;7.432;2022-08-07T09:33:03;22.80;99.90
10051;DHT22;5065;46.942;7.432;2022-08-07T09:35:43;22.90;99.90
10051;DHT22;5065;46.942;7.432;2022-08-07T09:38:17;22.90;99.90
10051;DHT22;5065;46.942;7.432;2022-08-07T09:41:02;23.00;99.90
10051;DHT22;5065;46.942;7.432;2022-08-07T09:43:51;23.10;99.90
10051;DHT22;5065;46.942;7.432;2022-08-07T09:46:27;23.20;99.90
10051;DHT22;5065;46.942;7.432;2022-08-07T09:49:11;23.30;99.90
10051;DHT22;5065;46.942;7.432;2022-08-07T09:51:58;23.40;99.90
10051;DHT22;5065;46.942;7.432;2022-08-07T09:54:37;23.40;99.90
10051;DHT22;5065;46.942;7.432;2022-08-07T09:57:28;23.40;99.90
10051;DHT22;5065;46.942;7.432;2022-08-07T10:00:07;23.50;99.90
10051;DHT22;5065;46.942;7.432;2022-08-07T10:03:01;23.50;99.90
10051;DHT22;5065;46.942;7.432;2022-08-07T10:05:54;23.50;99.90
10051;DHT22;5065;46.942;7.432;2022-08-07T10:11:53;23.60;99.90
10051;DHT22;5065;46.942;7.432;2022-08-07T10:17:41;23.60;99.90
10051;DHT22;5065;46.942;7.432;2022-08-07T10:20:21;23.50;99.90
10051;DHT22;5065;46.942;7.432;2022-08-07T10:26:00;23.50;99.90
10051;DHT22;5065;46.942;7.432;2022-08-07T10:28:53;23.50;99.90
10051;DHT22;5065;46.942;7.432;2022-08-07T10:31:43;23.50;99.90
10051;DHT22;5065;46.942;7.432;2022-08-07T10:34:38;23.60;99.90
10051;DHT22;5065;46.942;7.432;2022-08-07T10:37:18;23.60;99.90
10051;DHT22;5065;46.942;7.432;2022-08-07T10:39:57;23.60;99.90
10051;DHT22;5065;46.942;7.432;2022-08-07T10:42:35;23.50;99.90
10051;DHT22;5065;46.942;7.432;2022-08-07T10:45:18;23.50;99.90
10051;DHT22;5065;46.942;7.432;2022-08-07T10:48:02;23.40;99.90
10051;DHT22;5065;46.942;7.432;2022-08-07T10:50:36;23.50;99.90
10051;DHT22;5065;46.942;7.432;2022-08-07T10:53:11;23.50;99.90
10051;DHT22;5065;46.942;7.432;2022-08-07T10:55:44;23.30;99.90
10051;DHT22;5065;46.942;7.432;2022-08-07T10:58:30;23.20;99.90
10051;DHT22;5065;46.942;7.432;2022-08-07T11:01:15;23.30;99.90
10051;DHT22;5065;46.942;7.432;2022-08-07T11:03:48;23.30;99.90
10051;DHT22;5065;46.942;7.432;2022-08-07T11:06:20;23.20;99.90
10051;DHT22;5065;46.942;7.432;2022-08-07T11:08:55;23.20;99.90
10051;DHT22;5065;46.942;7.432;2022-08-07T11:11:28;23.20;99.90
10051;DHT22;5065;46.942;7.432;2022-08-07T11:14:03;23.30;99.90
10051;DHT22;5065;46.942;7.432;2022-08-07T11:16:37;23.30;99.90
10051;DHT22;5065;46.942;7.432;2022-08-07T11:19:10;23.50;99.90
10051;DHT22;5065;46.942;7.432;2022-08-07T11:21:49;23.60;99.90
10051;DHT22;5065;46.942;7.432;2022-08-07T11:24:22;23.70;99.90
10051;DHT22;5065;46.942;7.432;2022-08-07T11:26:56;23.80;99.90
10051;DHT22;5065;46.942;7.432;2022-08-07T11:29:32;23.90;99.90
10051;DHT22;5065;46.942;7.432;2022-08-07T11:32:07;24.00;99.90
10051;DHT22;5065;46.942;7.432;2022-08-07T11:34:38;24.00;99.90
10051;DHT22;5065;46.942;7.432;2022-08-07T11:37:12;24.10;99.90
10051;DHT22;5065;46.942;7.432;2022-08-07T11:39:58;24.10;99.90
10051;DHT22;5065;46.942;7.432;2022-08-07T11:42:32;24.10;99.90
10051;DHT22;5065;46.942;7.432;2022-08-07T11:45:12;24.10;99.90
10051;DHT22;5065;46.942;7.432;2022-08-07T11:53:52;23.90;99.90
10051;DHT22;5065;46.942;7.432;2022-08-07T11:56:34;23.70;99.90
10051;DHT22;5065;46.942;7.432;2022-08-07T11:59:25;23.60;99.90
10051;DHT22;5065;46.942;7.432;2022-08-07T12:01:59;23.60;99.90
10051;DHT22;5065;46.942;7.432;2022-08-07T12:04:45;23.60;99.90
10051;DHT22;5065;46.942;7.432;2022-08-07T12:07:21;23.50;99.90
10051;DHT22;5065;46.942;7.432;2022-08-07T12:09:54;23.30;99.90
10051;DHT22;5065;46.942;7.432;2022-08-07T12:12:25;23.30;99.90
10051;DHT22;5065;46.942;7.432;2022-08-07T12:14:58;23.30;99.90
10051;DHT22;5065;46.942;7.432;2022-08-07T12:17:38;23.30;99.90
10051;DHT22;5065;46.942;7.432;2022-08-07T12:20:27;23.20;99.90
10051;DHT22;5065;46.942;7.432;2022-08-07T12:23:13;23.20;99.90
10051;DHT22;5065;46.942;7.432;2022-08-07T12:25:47;23.20;99.90
10051;DHT22;5065;46.942;7.432;2022-08-07T12:28:33;23.20;99.90
10051;DHT22;5065;46.942;7.432;2022-08-07T12:31:05;23.20;99.90
10051;DHT22;5065;46.942;7.432;2022-08-07T12:33:35;23.20;99.90
10051;DHT22;5065;46.942;7.432;2022-08-07T12:36:04;23.20;99.90
10051;DHT22;5065;46.942;7.432;2022-08-07T12:38:32;23.20;99.90
10051;DHT22;5065;46.942;7.432;2022-08-07T12:41:01;23.10;99.90
10051;DHT22;5065;46.942;7.432;2022-08-07T12:43:31;23.00;99.90
10051;DHT22;5065;46.942;7.432;2022-08-07T12:46:08;23.10;99.90
10051;DHT22;5065;46.942;7.432;2022-08-07T12:48:44;23.10;99.90
10051;DHT22;5065;46.942;7.432;2022-08-07T12:51:18;23.00;99.90
10051;DHT22;5065;46.942;7.432;2022-08-07T12:53:50;23.10;99.90
10051;DHT22;5065;46.942;7.432;2022-08-07T12:56:25;23.10;99.90
10051;DHT22;5065;46.942;7.432;2022-08-07T12:58:55;23.10;99.90
10051;DHT22;5065;46.942;7.432;2022-08-07T13:01:34;23.20;99.90
10051;DHT22;5065;46.942;7.432;2022-08-07T13:04:19;23.20;99.90
10051;DHT22;5065;46.942;7.432;2022-08-07T13:07:02;23.20;99.90
10051;DHT22;5065;46.942;7.432;2022-08-07T13:10:03;23.20;99.90
10051;DHT22;5065;46.942;7.432;2022-08-07T13:12:49;23.20;99.90
10051;DHT22;5065;46.942;7.432;2022-08-07T13:15:25;23.20;99.90
10051;DHT22;5065;46.942;7.432;2022-08-07T13:18:02;23.20;99.90
10051;DHT22;5065;46.942;7.432;2022-08-07T13:20:40;23.20;99.90
10051;DHT22;5065;46.942;7.432;2022-08-07T13:23:18;23.30;99.90
10051;DHT22;5065;46.942;7.432;2022-08-07T13:25:55;23.20;99.90
10051;DHT22;5065;46.942;7.432;2022-08-07T13:28:29;23.30;99.90
10051;DHT22;5065;46.942;7.432;2022-08-07T13:31:06;23.30;99.90
10051;DHT22;5065;46.942;7.432;2022-08-07T13:33:40;23.30;99.90
10051;DHT22;5065;46.942;7.432;2022-08-07T13:36:16;23.30;99.90
10051;DHT22;5065;46.942;7.432;2022-08-07T13:38:53;23.30;99.90
10051;DHT22;5065;46.942;7.432;2022-08-07T13:41:29;23.30;99.90
10051;DHT22;5065;46.942;7.432;2022-08-07T13:44:02;23.30;99.90
10051;DHT22;5065;46.942;7.432;2022-08-07T13:46:36;23.20;99.90
10051;DHT22;5065;46.942;7.432;2022-08-07T13:49:05;23.20;99.90
10051;DHT22;5065;46.942;7.432;2022-08-07T13:51:34;23.20;99.90
10051;DHT22;5065;46.942;7.432;2022-08-07T13:54:08;23.30;99.90
10051;DHT22;5065;46.942;7.432;2022-08-07T13:56:39;23.30;99.90
10051;DHT22;5065;46.942;7.432;2022-08-07T13:59:10;23.40;99.90
10051;DHT22;5065;46.942;7.432;2022-08-07T14:01:46;23.40;99.90
10051;DHT22;5065;46.942;7.432;2022-08-07T14:04:15;23.40;99.90
10051;DHT22;5065;46.942;7.432;2022-08-07T14:06:46;23.40;99.90
10051;DHT22;5065;46.942;7.432;2022-08-07T14:09:20;23.40;99.90
10051;DHT22;5065;46.942;7.432;2022-08-07T14:11:51;23.40;99.90
10051;DHT22;5065;46.942;7.432;2022-08-07T14:14:22;23.40;99.90
10051;DHT22;5065;46.942;7.432;2022-08-07T14:16:54;23.50;99.90
10051;DHT22;5065;46.942;7.432;2022-08-07T14:19:29;23.50;99.90
10051;DHT22;5065;46.942;7.432;2022-08-07T14:22:01;23.50;99.90
10051;DHT22;5065;46.942;7.432;2022-08-07T14:24:34;23.50;99.90
10051;DHT22;5065;46.942;7.432;2022-08-07T14:27:05;23.30;99.90
10051;DHT22;5065;46.942;7.432;2022-08-07T14:29:36;23.20;99.90
10051;DHT22;5065;46.942;7.432;2022-08-07T14:32:08;23.20;99.90
10051;DHT22;5065;46.942;7.432;2022-08-07T14:34:40;23.10;99.90
10051;DHT22;5065;46.942;7.432;2022-08-07T14:37:09;23.10;99.90
10051;DHT22;5065;46.942;7.432;2022-08-07T14:39:40;23.00;99.90
10051;DHT22;5065;46.942;7.432;2022-08-07T14:42:10;23.00;99.90
10051;DHT22;5065;46.942;7.432;2022-08-07T14:44:44;23.00;99.90
10051;DHT22;5065;46.942;7.432;2022-08-07T14:47:13;23.00;99.90
10051;DHT22;5065;46.942;7.432;2022-08-07T14:49:42;22.90;99.90
10051;DHT22;5065;46.942;7.432;2022-08-07T14:52:10;22.80;99.90
10051;DHT22;5065;46.942;7.432;2022-08-07T14:54:40;22.80;99.90
10051;DHT22;5065;46.942;7.432;2022-08-07T14:57:12;22.80;99.90
10051;DHT22;5065;46.942;7.432;2022-08-07T14:59:44;22.80;99.90
10051;DHT22;5065;46.942;7.432;2022-08-07T15:02:14;22.80;99.90
10051;DHT22;5065;46.942;7.432;2022-08-07T15:04:44;22.80;99.90
10051;DHT22;5065;46.942;7.432;2022-08-07T15:07:17;22.80;99.90
10051;DHT22;5065;46.942;7.432;2022-08-07T15:09:50;22.80;99.90
10051;DHT22;5065;46.942;7.432;2022-08-07T15:12:21;22.80;99.90
10051;DHT22;5065;46.942;7.432;2022-08-07T15:14:51;22.90;99.90
10051;DHT22;5065;46.942;7.432;2022-08-07T15:17:24;22.90;99.90
10051;DHT22;5065;46.942;7.432;2022-08-07T15:20:00;22.90;99.90
10051;DHT22;5065;46.942;7.432;2022-08-07T15:22:31;22.80;99.90
10051;DHT22;5065;46.942;7.432;2022-08-07T15:25:04;22.90;99.90
10051;DHT22;5065;46.942;7.432;2022-08-07T15:27:38;22.90;99.90
10051;DHT22;5065;46.942;7.432;2022-08-07T15:30:10;23.00;99.90
10051;DHT22;5065;46.942;7.432;2022-08-07T15:32:40;23.00;99.90
10051;DHT22;5065;46.942;7.432;2022-08-07T15:35:13;23.00;99.90
10051;DHT22;5065;46.942;7.432;2022-08-07T15:37:43;23.00;99.90
10051;DHT22;5065;46.942;7.432;2022-08-07T15:40:16;23.10;99.90
10051;DHT22;5065;46.942;7.432;2022-08-07T15:42:54;23.10;99.90
10051;DHT22;5065;46.942;7.432;2022-08-07T15:45:31;23.20;99.90
10051;DHT22;5065;46.942;7.432;2022-08-07T15:48:11;23.20;99.90
10051;DHT22;5065;46.942;7.432;2022-08-07T15:50:41;23.20;99.90
10051;DHT22;5065;46.942;7.432;2022-08-07T15:53:12;23.20;99.90
10051;DHT22;5065;46.942;7.432;2022-08-07T15:55:46;23.20;99.90
10051;DHT22;5065;46.942;7.432;2022-08-07T15:58:18;23.20;99.90
10051;DHT22;5065;46.942;7.432;2022-08-07T16:00:48;23.20;99.90
10051;DHT22;5065;46.942;7.432;2022-08-07T16:03:18;23.20;99.90
10051;DHT22;5065;46.942;7.432;2022-08-07T16:05:48;23.10;99.90
10051;DHT22;5065;46.942;7.432;2022-08-07T16:08:18;23.00;99.90
10051;DHT22;5065;46.942;7.432;2022-08-07T16:10:52;22.90;99.90
10051;DHT22;5065;46.942;7.432;2022-08-07T16:13:49;22.90;99.90
10051;DHT22;5065;46.942;7.432;2022-08-07T16:16:33;22.90;99.90
10051;DHT22;5065;46.942;7.432;2022-08-07T16:19:14;22.90;99.90
10051;DHT22;5065;46.942;7.432;2022-08-07T16:21:52;22.90;99.90
10051;DHT22;5065;46.942;7.432;2022-08-07T16:24:29;22.80;99.90
10051;DHT22;5065;46.942;7.432;2022-08-07T16:27:07;22.80;99.90
10051;DHT22;5065;46.942;7.432;2022-08-07T16:30:00;22.80;99.90
10051;DHT22;5065;46.942;7.432;2022-08-07T16:32:33;22.70;99.90
10051;DHT22;5065;46.942;7.432;2022-08-07T16:35:16;22.80;99.90